createdAt,value
2018-01-17T00:00:30.130Z,2.57
2018-01-17T00:02:56.798Z,2.17
2018-01-17T00:05:30.122Z,2.53
2018-01-17T00:07:56.792Z,2.20
2018-01-17T00:10:24.391Z,2.40
2018-01-17T00:12:51.067Z,2.33
2018-01-17T00:15:22.491Z,2.87
2018-01-17T00:17:49.166Z,3.90
2018-01-17T00:20:15.826Z,3.27
2018-01-17T00:22:42.498Z,3.73
2018-01-17T00:25:09.315Z,3.73
2018-01-17T00:27:35.987Z,3.83
2018-01-17T00:30:17.731Z,4.30
2018-01-17T00:32:44.410Z,4.90
2018-01-17T00:35:11.067Z,4.00
2018-01-17T00:37:37.731Z,5.23
2018-01-17T00:40:04.436Z,4.53
2018-01-17T00:42:31.106Z,3.73
2018-01-17T00:45:08.236Z,4.20
2018-01-17T00:47:34.899Z,3.50
2018-01-17T00:50:01.576Z,3.30
2018-01-17T00:52:28.228Z,2.73
2018-01-17T00:54:54.900Z,2.83
2018-01-17T00:57:21.557Z,2.80
2018-01-17T00:59:52.586Z,2.07
2018-01-17T01:02:19.246Z,2.57
2018-01-17T01:04:45.919Z,2.67
2018-01-17T01:07:12.574Z,2.77
2018-01-17T01:09:39.229Z,3.50
2018-01-17T01:12:05.904Z,4.50
2018-01-17T01:14:32.592Z,4.77
2018-01-17T01:16:59.266Z,3.47
2018-01-17T01:19:25.916Z,3.80
2018-01-17T01:21:52.592Z,4.23
2018-01-17T01:24:19.244Z,3.70
2018-01-17T01:26:45.916Z,3.47
2018-01-17T01:29:12.583Z,3.20
2018-01-17T01:31:39.251Z,2.30
2018-01-17T01:34:05.931Z,2.10
2018-01-17T01:36:33.262Z,1.77
2018-01-17T01:38:59.925Z,2.40
2018-01-17T01:41:26.590Z,1.17
2018-01-17T01:43:53.267Z,1.10
2018-01-17T01:46:19.935Z,1.20
2018-01-17T01:48:52.557Z,0.97
2018-01-17T01:51:27.492Z,0.63
2018-01-17T01:53:54.145Z,0.50
2018-01-17T01:56:20.794Z,0.80
2018-01-17T01:58:59.672Z,0.80
2018-01-17T02:01:26.338Z,0.73
2018-01-17T02:03:52.992Z,0.90
2018-01-17T02:06:19.656Z,0.70
2018-01-17T02:08:46.336Z,0.63
2018-01-17T02:11:13.005Z,0.60
2018-01-17T02:13:39.649Z,1.20
2018-01-17T02:16:06.316Z,2.10
2018-01-17T02:18:32.963Z,2.27
2018-01-17T02:20:59.624Z,2.20
2018-01-17T02:23:26.272Z,2.40
2018-01-17T02:25:52.942Z,3.60
2018-01-17T02:28:19.592Z,3.60
2018-01-17T02:30:46.266Z,4.30
2018-01-17T02:33:12.938Z,3.40
2018-01-17T02:35:41.558Z,4.50
2018-01-17T02:38:08.227Z,4.27
2018-01-17T02:40:38.744Z,4.73
2018-01-17T02:43:05.404Z,4.00
2018-01-17T02:45:32.056Z,3.10
2018-01-17T02:47:58.719Z,1.90
2018-01-17T02:50:25.394Z,2.30
2018-01-17T02:52:52.037Z,1.30
2018-01-17T02:55:22.645Z,1.50
2018-01-17T02:57:49.310Z,1.40
2018-01-17T03:00:15.976Z,1.50
2018-01-17T03:02:42.636Z,1.40
2018-01-17T03:05:09.344Z,1.57
2018-01-17T03:07:36.014Z,1.23
2018-01-17T03:10:02.668Z,1.30
2018-01-17T03:12:29.324Z,1.50
2018-01-17T03:15:01.706Z,1.77
2018-01-17T03:17:28.373Z,1.77
2018-01-17T03:19:55.047Z,1.90
2018-01-17T03:22:21.695Z,1.90
2018-01-17T03:24:48.374Z,1.90
2018-01-17T03:27:15.033Z,2.03
2018-01-17T03:29:41.703Z,1.90
2018-01-17T03:32:08.373Z,2.27
2018-01-17T03:34:35.022Z,1.93
2018-01-17T03:37:05.741Z,1.87
2018-01-17T03:39:32.397Z,1.40
2018-01-17T03:41:59.053Z,1.63
2018-01-17T03:44:25.716Z,1.57
2018-01-17T03:46:55.653Z,1.47
2018-01-17T03:49:22.300Z,1.67
2018-01-17T03:51:48.974Z,1.60
2018-01-17T03:54:29.883Z,1.73
2018-01-17T04:00:01.116Z,1.50
2018-01-17T04:02:27.772Z,1.40
2018-01-17T04:04:54.425Z,1.83
2018-01-17T04:07:21.094Z,1.93
2018-01-17T04:09:47.752Z,1.80
2018-01-17T04:12:14.423Z,1.70
2018-01-17T04:14:41.084Z,1.97
2018-01-17T04:17:07.805Z,1.97
2018-01-17T04:19:34.415Z,1.90
2018-01-17T04:22:01.073Z,1.80
2018-01-17T04:24:27.744Z,2.03
2018-01-17T04:26:54.450Z,2.20
2018-01-17T04:29:21.229Z,2.53
2018-01-17T04:31:47.900Z,2.90
2018-01-17T04:34:14.566Z,2.53
2018-01-17T04:36:41.221Z,2.77
2018-01-17T04:39:07.883Z,2.67
2018-01-17T04:41:34.563Z,2.57
2018-01-17T04:44:01.231Z,3.07
2018-01-17T04:46:27.892Z,2.33
2018-01-17T04:48:54.558Z,2.77
2018-01-17T04:51:21.227Z,2.73
2018-01-17T04:53:49.887Z,2.07
2018-01-17T04:56:27.223Z,2.20
2018-01-17T04:58:54.844Z,2.17
2018-01-17T05:01:28.264Z,1.93
2018-01-17T05:04:02.485Z,3.47
2018-01-17T05:06:29.149Z,2.00
2018-01-17T05:11:44.499Z,1.90
2018-01-17T05:14:11.154Z,1.80
2018-01-17T05:16:38.609Z,1.70
2018-01-17T05:19:19.190Z,1.77
2018-01-17T05:21:45.840Z,2.03
2018-01-17T05:24:27.618Z,1.90
2018-01-17T05:27:11.148Z,2.20
2018-01-17T05:29:37.823Z,2.03
2018-01-17T05:32:04.473Z,1.70
2018-01-17T05:34:31.128Z,1.70
2018-01-17T05:37:03.389Z,1.60
2018-01-17T05:39:30.058Z,1.33
2018-01-17T05:41:57.698Z,1.63
2018-01-17T05:44:24.356Z,1.90
2018-01-17T05:47:10.127Z,1.90
2018-01-17T05:49:36.800Z,2.00
2018-01-17T05:52:09.792Z,2.20
2018-01-17T05:54:36.478Z,1.90
2018-01-17T05:57:03.145Z,2.80
2018-01-17T05:59:30.776Z,2.77
2018-01-17T06:01:58.344Z,3.40
2018-01-17T06:04:26.227Z,3.27
2018-01-17T06:06:53.030Z,3.20
2018-01-17T06:09:19.711Z,3.40
2018-01-17T06:11:50.011Z,3.37
2018-01-17T06:14:16.677Z,3.10
2018-01-17T06:16:49.686Z,3.17
2018-01-17T06:19:16.345Z,4.53
2018-01-17T06:21:59.424Z,2.80
2018-01-17T06:24:27.048Z,3.27
2018-01-17T06:26:59.790Z,3.70
2018-01-17T06:29:26.462Z,2.63
2018-01-17T06:31:54.664Z,2.50
2018-01-17T06:34:21.320Z,2.77
2018-01-17T06:36:51.705Z,2.47
2018-01-17T06:39:19.373Z,2.90
2018-01-17T06:41:46.036Z,3.00
2018-01-17T06:44:15.850Z,2.40
2018-01-17T06:46:46.553Z,2.00
2018-01-17T06:49:15.175Z,2.13
2018-01-17T06:51:41.862Z,2.20
2018-01-17T06:54:08.534Z,2.70
2018-01-17T06:56:35.202Z,1.97
2018-01-17T06:59:01.848Z,1.60
2018-01-17T07:01:36.158Z,2.07
2018-01-17T07:04:13.232Z,2.10
2018-01-17T07:09:27.904Z,2.20
2018-01-17T07:11:54.574Z,2.47
2018-01-17T07:14:21.243Z,2.63
2018-01-17T07:16:47.920Z,2.87
2018-01-17T07:19:14.591Z,2.60
2018-01-17T07:21:43.220Z,3.20
2018-01-17T07:24:09.891Z,2.70
2018-01-17T07:26:36.570Z,3.17
2018-01-17T07:29:04.178Z,3.10
2018-01-17T07:31:36.363Z,3.67
2018-01-17T07:34:03.002Z,3.97
2018-01-17T07:36:31.633Z,3.50
2018-01-17T07:38:58.315Z,4.07
2018-01-17T07:41:28.291Z,4.10
2018-01-17T07:43:54.947Z,3.97
2018-01-17T07:46:21.627Z,4.30
2018-01-17T07:48:48.295Z,3.57
2018-01-17T07:51:14.953Z,4.37
2018-01-17T07:53:48.581Z,3.90
2018-01-17T07:56:18.477Z,3.13
2018-01-17T07:58:47.055Z,3.20
2018-01-17T08:01:15.666Z,3.67
2018-01-17T08:03:42.316Z,2.97
2018-01-17T08:06:08.995Z,3.33
2018-01-17T08:08:35.674Z,3.43
2018-01-17T08:11:02.347Z,2.97
2018-01-17T08:13:29.019Z,3.00
2018-01-17T08:15:55.673Z,2.90
2018-01-17T08:18:22.342Z,2.87
2018-01-17T08:20:56.667Z,2.60
2018-01-17T08:23:36.424Z,3.00
2018-01-17T08:26:03.071Z,2.73
2018-01-17T08:28:30.682Z,4.00
2018-01-17T08:30:59.470Z,3.20
2018-01-17T08:33:32.800Z,3.47
2018-01-17T08:35:59.567Z,3.57
2018-01-17T08:38:26.248Z,3.90
2018-01-17T08:40:52.919Z,4.17
2018-01-17T08:43:19.589Z,3.83
2018-01-17T08:45:46.259Z,4.00
2018-01-17T08:48:12.918Z,5.13
2018-01-17T08:50:39.595Z,4.03
2018-01-17T08:53:07.199Z,4.40
2018-01-17T08:55:34.873Z,3.93
2018-01-17T08:58:01.546Z,3.60
2018-01-17T09:00:28.201Z,3.93
2018-01-17T09:02:54.872Z,3.97
2018-01-17T09:05:21.548Z,3.70
2018-01-17T09:07:48.209Z,3.77
2018-01-17T09:10:18.244Z,4.40
2018-01-17T09:12:44.908Z,3.30
2018-01-17T09:15:12.501Z,3.13
2018-01-17T09:17:40.149Z,3.30
2018-01-17T09:20:13.652Z,3.23
2018-01-17T09:22:45.154Z,3.67
2018-01-17T09:25:11.819Z,3.37
2018-01-17T09:27:38.481Z,3.37
2018-01-17T09:30:05.159Z,3.20
2018-01-17T09:32:32.752Z,3.70
2018-01-17T09:35:04.414Z,3.30
2018-01-17T09:37:31.083Z,3.93
2018-01-17T09:39:58.721Z,3.73
2018-01-17T09:42:25.384Z,3.43
2018-01-17T09:45:01.987Z,3.50
2018-01-17T09:47:28.628Z,3.43
2018-01-17T09:49:55.316Z,3.37
2018-01-17T09:52:21.976Z,3.20
2018-01-17T09:54:48.666Z,3.40
2018-01-17T09:57:15.342Z,3.37
2018-01-17T09:59:41.999Z,3.10
2018-01-17T10:02:21.620Z,2.77
2018-01-17T10:04:48.273Z,3.10
2018-01-17T10:07:14.941Z,3.30
2018-01-17T10:09:42.786Z,2.77
2018-01-17T10:12:09.456Z,2.60
2018-01-17T10:14:36.113Z,2.50
2018-01-17T10:17:02.784Z,2.63
2018-01-17T10:19:29.463Z,2.97
2018-01-17T10:21:56.105Z,2.50
2018-01-17T10:24:22.779Z,2.63
2018-01-17T10:26:49.454Z,2.40
2018-01-17T10:29:16.185Z,3.40
2018-01-17T10:31:42.796Z,2.90
2018-01-17T10:34:15.298Z,3.07
2018-01-17T10:36:41.961Z,4.00
2018-01-17T10:39:08.664Z,5.30
2018-01-17T10:41:35.326Z,4.00
2018-01-17T10:44:01.988Z,3.80
2018-01-17T10:46:28.641Z,3.97
2018-01-17T10:49:01.471Z,3.80
2018-01-17T10:51:28.142Z,4.03
2018-01-17T10:54:06.912Z,5.10
2018-01-17T10:56:33.594Z,5.00
2018-01-17T10:59:00.240Z,4.60
2018-01-17T11:01:27.870Z,4.87
2018-01-17T11:03:54.557Z,5.17
2018-01-17T11:06:27.232Z,5.07
2018-01-17T11:08:53.908Z,5.20
2018-01-17T11:11:20.580Z,4.43
2018-01-17T11:13:47.246Z,3.53
2018-01-17T11:16:13.926Z,3.70
2018-01-17T11:18:40.588Z,4.17
2018-01-17T11:21:07.302Z,4.70
2018-01-17T11:23:33.948Z,4.57
2018-01-17T11:26:00.634Z,5.23
2018-01-17T11:28:27.309Z,4.50
2018-01-17T11:30:53.971Z,4.77
2018-01-17T11:33:24.456Z,5.33
2018-01-17T11:35:51.137Z,4.87
2018-01-17T11:38:17.784Z,5.03
2018-01-17T11:40:45.425Z,4.73
2018-01-17T11:43:12.082Z,4.33
2018-01-17T11:45:38.779Z,4.40
2018-01-17T11:48:05.459Z,4.77
2018-01-17T11:50:32.125Z,3.73
2018-01-17T11:53:00.752Z,4.27
2018-01-17T11:55:33.033Z,3.87
2018-01-17T11:57:59.708Z,3.97
2018-01-17T12:00:28.367Z,4.10
2018-01-17T12:02:55.051Z,3.77
2018-01-17T12:05:21.731Z,3.90
2018-01-17T12:07:48.398Z,4.03
2018-01-17T12:10:18.925Z,3.87
2018-01-17T12:12:49.656Z,3.80
2018-01-17T12:15:17.315Z,3.93
2018-01-17T12:17:43.976Z,4.13
2018-01-17T12:20:10.668Z,3.40
2018-01-17T12:22:40.991Z,4.20
2018-01-17T12:25:07.663Z,4.77
2018-01-17T12:27:34.415Z,4.37
2018-01-17T12:30:01.076Z,4.33
2018-01-17T12:32:27.740Z,4.70
2018-01-17T12:34:54.402Z,5.70
2018-01-17T12:37:21.091Z,4.87
2018-01-17T12:39:47.782Z,4.13
2018-01-17T12:42:14.488Z,5.10
2018-01-17T12:44:59.800Z,4.77
2018-01-17T12:47:26.465Z,4.20
2018-01-17T12:49:53.165Z,5.13
2018-01-17T12:52:30.780Z,5.20
2018-01-17T12:54:57.443Z,4.83
2018-01-17T12:57:31.544Z,4.23
2018-01-17T12:59:58.211Z,4.10
2018-01-17T13:02:24.912Z,4.20
2018-01-17T13:04:51.583Z,4.00
2018-01-17T13:07:18.277Z,4.27
2018-01-17T13:09:45.268Z,3.90
2018-01-17T13:12:20.456Z,4.20
2018-01-17T13:14:48.427Z,4.67
2018-01-17T13:17:15.840Z,3.93
2018-01-17T13:19:44.140Z,3.77
2018-01-17T13:22:11.378Z,3.77
2018-01-17T13:24:38.421Z,3.07
2018-01-17T13:27:05.152Z,3.50
2018-01-17T13:29:32.115Z,3.00
2018-01-17T13:31:59.061Z,3.20
2018-01-17T13:34:26.141Z,3.70
2018-01-17T13:36:53.100Z,3.90
2018-01-17T13:39:22.823Z,3.17
2018-01-17T13:41:52.819Z,3.00
2018-01-17T13:44:20.588Z,2.80
2018-01-17T13:46:48.133Z,2.83
2018-01-17T13:49:16.007Z,3.03
2018-01-17T13:51:44.365Z,3.10
2018-01-17T13:54:15.883Z,2.90
2018-01-17T13:56:46.344Z,4.03
2018-01-17T13:59:13.042Z,3.50
2018-01-17T14:01:40.120Z,3.77
2018-01-17T14:04:07.211Z,3.60
2018-01-17T14:06:34.123Z,3.53
2018-01-17T14:09:02.821Z,3.30
2018-01-17T14:11:33.046Z,3.03
2018-01-17T14:13:59.892Z,3.03
2018-01-17T14:16:26.769Z,3.33
2018-01-17T14:18:53.467Z,3.43
2018-01-17T14:21:25.553Z,3.97
2018-01-17T14:23:53.723Z,4.07
2018-01-17T14:26:22.733Z,4.03
2018-01-17T14:28:49.443Z,4.57
2018-01-17T14:31:16.131Z,4.80
2018-01-17T14:33:42.793Z,4.43
2018-01-17T14:36:09.823Z,4.43
2018-01-17T14:38:36.529Z,4.37
2018-01-17T14:41:03.267Z,4.37
2018-01-17T14:43:29.928Z,5.13
2018-01-17T14:45:56.598Z,5.20
2018-01-17T14:48:23.328Z,4.27
2018-01-17T14:50:50.045Z,4.30
2018-01-17T14:53:17.671Z,4.67
2018-01-17T14:55:44.365Z,4.83
2018-01-17T14:58:12.964Z,4.57
2018-01-17T15:00:43.404Z,4.30
2018-01-17T15:03:11.982Z,4.37
2018-01-17T15:05:45.169Z,3.40
2018-01-17T15:08:17.650Z,3.93
2018-01-17T15:10:44.334Z,3.80
2018-01-17T15:13:11.520Z,3.87
2018-01-17T15:15:39.714Z,3.20
2018-01-17T15:18:06.486Z,4.03
2018-01-17T15:20:33.549Z,3.90
2018-01-17T15:23:00.531Z,2.93
2018-01-17T15:25:27.375Z,3.30
2018-01-17T15:27:54.755Z,3.37
2018-01-17T15:30:21.911Z,3.63
2018-01-17T15:32:49.385Z,3.07
2018-01-17T15:35:17.366Z,3.50
2018-01-17T15:37:44.394Z,3.37
2018-01-17T15:40:11.445Z,3.33
2018-01-17T15:42:38.671Z,3.77
2018-01-17T15:45:05.915Z,2.77
2018-01-17T15:47:33.014Z,3.20
2018-01-17T15:49:59.939Z,3.47
2018-01-17T15:52:27.073Z,3.30
2018-01-17T15:54:56.004Z,3.03
2018-01-17T15:57:22.762Z,3.37
2018-01-17T15:59:49.428Z,2.80
2018-01-17T16:02:16.111Z,3.33
2018-01-17T16:04:42.788Z,3.53
2018-01-17T16:07:13.115Z,3.63
2018-01-17T16:09:39.791Z,2.53
2018-01-17T16:12:12.315Z,3.17
2018-01-17T16:14:38.977Z,2.77
2018-01-17T16:17:06.562Z,2.67
2018-01-17T16:19:36.445Z,3.30
2018-01-17T16:22:04.023Z,3.00
2018-01-17T16:24:30.720Z,3.47
2018-01-17T16:26:59.285Z,2.97
2018-01-17T16:29:29.073Z,2.70
2018-01-17T16:31:55.760Z,2.90
2018-01-17T16:34:28.737Z,3.40
2018-01-17T16:36:56.293Z,2.87
2018-01-17T16:39:23.018Z,2.90
2018-01-17T16:41:49.774Z,3.10
2018-01-17T16:44:17.447Z,3.63
2018-01-17T16:46:44.208Z,3.67
2018-01-17T16:49:10.917Z,3.33
2018-01-17T16:51:37.662Z,3.30
2018-01-17T16:54:04.377Z,3.33
2018-01-17T16:56:32.022Z,3.17
2018-01-17T16:58:58.709Z,2.80
2018-01-17T17:01:25.440Z,3.20
2018-01-17T17:03:52.179Z,3.63
2018-01-17T17:06:18.870Z,5.70
2018-01-17T17:08:45.553Z,3.93
2018-01-17T17:11:14.111Z,4.27
2018-01-17T17:13:41.687Z,3.20
2018-01-17T17:16:08.357Z,6.77
2018-01-17T17:18:35.982Z,7.93
2018-01-17T17:21:02.617Z,4.03
2018-01-17T17:23:30.299Z,5.10
2018-01-17T17:25:56.922Z,2.97
2018-01-17T17:28:23.603Z,4.03
2018-01-17T17:30:50.274Z,3.07
2018-01-17T17:33:22.307Z,3.67
2018-01-17T17:35:48.979Z,2.80
2018-01-17T17:38:15.647Z,2.87
2018-01-17T17:40:42.326Z,2.93
2018-01-17T17:43:10.909Z,3.17
2018-01-17T17:45:37.592Z,3.80
2018-01-17T17:48:04.263Z,3.60
2018-01-17T17:50:30.943Z,3.03
2018-01-17T17:52:57.659Z,3.57
2018-01-17T17:55:24.301Z,3.13
2018-01-17T17:57:51.001Z,3.10
2018-01-17T18:00:17.660Z,3.77
2018-01-17T18:02:44.340Z,3.57
2018-01-17T18:05:11.010Z,2.87
2018-01-17T18:07:37.708Z,3.60
2018-01-17T18:10:04.429Z,3.23
2018-01-17T18:12:31.157Z,2.93
2018-01-17T18:15:01.272Z,3.53
2018-01-17T18:17:27.929Z,3.40
2018-01-17T18:19:54.694Z,3.50
2018-01-17T18:22:21.348Z,3.53
2018-01-17T18:24:49.076Z,3.33
2018-01-17T18:27:19.809Z,3.30
2018-01-17T18:29:48.433Z,3.00
2018-01-17T18:32:19.088Z,2.93
2018-01-17T18:34:47.780Z,2.90
2018-01-17T18:37:14.433Z,3.13
2018-01-17T18:39:42.011Z,3.67
2018-01-17T18:42:10.595Z,3.30
2018-01-17T18:44:37.547Z,2.87
2018-01-17T18:47:04.318Z,3.23
2018-01-17T18:49:31.408Z,3.07
2018-01-17T18:51:58.663Z,3.43
2018-01-17T18:54:26.074Z,8.47
2018-01-17T18:56:55.116Z,3.60
2018-01-17T18:59:23.263Z,3.70
2018-01-17T19:01:50.165Z,6.27
2018-01-17T19:04:21.129Z,4.43
2018-01-17T20:31:13.542Z,1.60
2018-01-17T20:36:10.484Z,2.20
2018-01-17T20:49:47.095Z,1.50
2018-01-17T20:52:13.754Z,2.00
2018-01-17T20:54:52.983Z,2.20
2018-01-17T20:57:19.644Z,1.83
2018-01-17T20:59:47.453Z,1.90
2018-01-17T21:10:28.605Z,2.40
2018-01-17T21:16:53.203Z,4.83
2018-01-17T21:19:25.528Z,4.73
2018-01-17T21:21:54.234Z,5.07
2018-01-17T21:24:22.892Z,4.93
2018-01-17T21:26:53.449Z,5.33
2018-01-17T21:29:26.996Z,6.00
2018-01-17T21:31:53.727Z,5.20
2018-01-17T21:34:22.346Z,5.60
2018-01-17T21:36:59.092Z,5.30
2018-01-17T21:39:31.219Z,5.67
2018-01-17T21:42:01.020Z,5.20
2018-01-17T21:44:44.784Z,6.27
2018-01-17T21:47:12.430Z,5.80
2018-01-17T21:49:39.115Z,5.10
2018-01-17T21:54:51.306Z,5.30
2018-01-17T21:57:30.225Z,5.53
2018-01-17T21:59:56.892Z,4.70
2018-01-17T22:02:23.647Z,5.60
2018-01-17T22:04:52.280Z,4.53
2018-01-17T22:07:32.557Z,4.90
2018-01-17T22:09:59.233Z,4.57
2018-01-17T22:12:27.839Z,4.83
2018-01-17T22:14:54.511Z,4.97
2018-01-17T22:17:25.209Z,4.20
2018-01-17T22:19:56.036Z,4.50
2018-01-17T22:22:22.711Z,4.17
2018-01-17T22:25:00.208Z,4.93
2018-01-17T22:27:26.873Z,4.57
2018-01-17T22:29:53.542Z,4.73
2018-01-17T22:32:20.223Z,4.90
2018-01-17T22:34:51.299Z,4.70
2018-01-17T22:40:05.018Z,4.97
2018-01-17T22:42:45.584Z,4.60
2018-01-17T22:45:14.218Z,4.67
2018-01-17T22:47:40.891Z,4.67
2018-01-17T22:50:07.573Z,4.83
2018-01-17T22:55:32.552Z,4.20
2018-01-17T22:57:59.217Z,4.83
2018-01-17T23:00:27.888Z,5.57
2018-01-17T23:02:54.557Z,4.73
2018-01-17T23:05:21.221Z,4.37
2018-01-17T23:07:53.204Z,4.87
2018-01-17T23:10:27.894Z,4.97
2018-01-17T23:13:12.135Z,4.67
2018-01-17T23:15:51.867Z,4.67
2018-01-17T23:18:19.474Z,4.70
2018-01-17T23:20:46.133Z,4.83
2018-01-17T23:23:19.457Z,5.50
2018-01-17T23:25:51.578Z,4.80
2018-01-17T23:28:30.133Z,5.90
2018-01-17T23:31:00.111Z,6.20
2018-01-17T23:33:26.764Z,6.80
2018-01-17T23:35:53.465Z,6.57
2018-01-17T23:38:30.409Z,7.63
2018-01-17T23:40:57.076Z,6.80
2018-01-17T23:43:27.440Z,7.10
2018-01-17T23:45:54.113Z,5.80
2018-01-17T23:48:20.810Z,6.90
2018-01-17T23:50:56.077Z,6.53
2018-01-17T23:53:34.276Z,7.53
2018-01-17T23:56:09.193Z,7.47
2018-01-17T23:58:37.883Z,7.87
